Time;durP1;ratioP1;P1;durP2;ratioP2;P2;SDS_P1;SDS_P2;PMS_P1;PMS_P2;Temp;Humidity;BMP_temperature;BMP_pressure;BME280_temperature;BME280_humidity;BME280_pressure;Samples;Min_cycle;Max_cycle;Signal;HPM_P1;HPM_P2
2023/09/25 06:56:39;;;;;;;1.13;0.93;;;;;;;14.06;97.50;102209.25;4875677;29;20438;-69
2023/09/25 06:59:08;;;;;;;1.30;0.93;;;;;;;14.10;96.57;102205.09;4881994;29;20455;-69
2023/09/25 07:01:36;;;;;;;4.20;0.70;;;;;;;14.18;95.57;102207.72;4876021;29;20864;-68
2023/09/25 07:04:06;;;;;;;0.80;0.40;;;;;;;14.37;95.38;102199.94;4880415;29;20860;-70
2023/09/25 07:06:35;;;;;;;0.90;0.60;;;;;;;14.43;94.55;102210.03;4880721;29;20442;-69
2023/09/25 07:09:08;;;;;;;0.90;0.70;;;;;;;14.55;92.73;102211.22;4878733;29;20624;-69
2023/09/25 07:11:38;;;;;;;0.90;0.73;;;;;;;14.63;92.68;102208.34;4879577;29;20843;-70
2023/09/25 07:14:07;;;;;;;0.80;0.50;;;;;;;14.71;91.71;102208.22;4880599;29;20431;-70
2023/09/25 07:16:37;;;;;;;0.90;0.77;;;;;;;14.86;91.05;102211.69;4881224;29;20443;-70
2023/09/25 07:19:08;;;;;;;1.30;0.60;;;;;;;14.95;91.31;102215.94;4878714;29;20501;-69
2023/09/25 07:21:37;;;;;;;0.90;0.50;;;;;;;15.09;89.92;102222.31;4881606;29;20497;-71
2023/09/25 07:24:07;;;;;;;0.87;0.53;;;;;;;15.24;88.95;102220.31;4878235;29;20941;-71
2023/09/25 07:26:35;;;;;;;0.90;0.80;;;;;;;15.32;87.72;102216.56;4878253;29;20413;-69
2023/09/25 07:29:05;;;;;;;0.80;0.50;;;;;;;15.37;88.90;102214.09;4875790;29;20504;-70
2023/09/25 07:31:43;;;;;;;1.00;0.80;;;;;;;15.45;87.10;102219.38;4875430;29;20479;-70
2023/09/25 07:34:11;;;;;;;0.80;0.50;;;;;;;15.59;87.74;102218.41;4880770;29;20430;-70
2023/09/25 07:36:41;;;;;;;0.80;0.50;;;;;;;15.73;85.54;102222.06;4882152;29;20522;-69
2023/09/25 07:39:13;;;;;;;0.90;0.70;;;;;;;15.82;85.13;102221.69;4874181;29;20494;-69
2023/09/25 07:41:42;;;;;;;0.90;0.70;;;;;;;16.00;84.24;102221.94;4877529;29;20548;-69
2023/09/25 07:44:12;;;;;;;0.90;0.50;;;;;;;16.04;83.25;102223.19;4879595;29;20465;-69
2023/09/25 07:46:41;;;;;;;3.17;1.67;;;;;;;16.15;82.81;102218.19;4880205;29;20481;-69
2023/09/25 07:49:10;;;;;;;0.80;0.50;;;;;;;16.20;81.76;102221.13;4875154;29;20730;-71
2023/09/25 07:51:38;;;;;;;0.80;0.50;;;;;;;16.33;81.88;102218.41;4872685;29;20528;-70
2023/09/25 07:54:08;;;;;;;0.90;0.50;;;;;;;16.44;79.74;102228.75;4879190;29;20483;-68
2023/09/25 07:56:37;;;;;;;3.60;0.90;;;;;;;16.51;79.94;102226.84;4876181;29;20805;-70
2023/09/25 07:59:05;;;;;;;0.80;0.40;;;;;;;16.59;79.67;102218.50;4879592;29;20431;-70
2023/09/25 08:01:38;;;;;;;1.10;0.70;;;;;;;16.74;78.02;102218.28;4879147;29;20422;-70
2023/09/25 08:04:07;;;;;;;2.10;0.70;;;;;;;16.88;77.31;102214.47;4869644;29;20966;-68
2023/09/25 08:06:36;;;;;;;0.90;0.80;;;;;;;16.92;76.78;102222.03;4877237;29;20410;-70
2023/09/25 08:09:05;;;;;;;0.90;0.50;;;;;;;17.11;76.95;102214.00;4878651;29;20534;-69
2023/09/25 08:11:34;;;;;;;0.80;0.40;;;;;;;17.19;75.88;102208.31;4878673;29;20510;-69
2023/09/25 08:14:02;;;;;;;0.90;0.50;;;;;;;17.21;75.07;102217.16;4878242;29;20453;-69
2023/09/25 08:16:31;;;;;;;0.80;0.40;;;;;;;17.25;74.85;102218.41;4878835;29;20474;-70
2023/09/25 08:19:01;;;;;;;1.30;0.77;;;;;;;17.24;74.51;102217.56;4877903;29;20421;-69
2023/09/25 08:21:30;;;;;;;0.80;0.50;;;;;;;17.27;75.13;102224.50;4876819;29;20455;-69
2023/09/25 08:23:59;;;;;;;2.37;1.40;;;;;;;17.46;74.68;102229.09;4875859;29;20429;-69
2023/09/25 08:26:29;;;;;;;0.90;0.40;;;;;;;17.54;74.59;102230.72;4878803;29;20418;-69
2023/09/25 08:29:00;;;;;;;0.80;0.50;;;;;;;17.73;72.39;102227.94;4880666;29;20417;-69
2023/09/25 08:31:29;;;;;;;1.87;1.00;;;;;;;17.73;72.48;102224.38;4876239;29;20461;-70
2023/09/25 08:33:57;;;;;;;1.63;0.60;;;;;;;17.89;72.44;102231.25;4881210;29;20455;-70
2023/09/25 08:36:28;;;;;;;0.90;0.40;;;;;;;17.80;71.14;102225.19;4873440;29;20468;-69
2023/09/25 08:38:56;;;;;;;1.50;0.93;;;;;;;17.73;71.81;102227.09;4879619;29;20430;-70
2023/09/25 08:41:27;;;;;;;1.00;0.70;;;;;;;17.88;71.86;102221.34;4879520;29;20489;-69
2023/09/25 08:43:56;;;;;;;1.97;1.23;;;;;;;18.02;71.58;102228.44;4878481;29;20417;-71
2023/09/25 08:46:26;;;;;;;0.90;0.40;;;;;;;17.98;70.82;102230.78;4878660;29;20418;-69
2023/09/25 08:48:56;;;;;;;1.17;0.70;;;;;;;18.08;71.20;102238.53;4880279;29;20446;-70
2023/09/25 08:51:31;;;;;;;1.00;0.70;;;;;;;18.16;70.54;102235.50;4876563;29;21031;-70
2023/09/25 08:54:00;;;;;;;0.90;0.40;;;;;;;18.10;70.33;102236.41;4881837;29;20433;-71
2023/09/25 08:56:32;;;;;;;1.43;1.33;;;;;;;18.10;70.59;102239.16;4879822;29;20414;-69
2023/09/25 08:59:03;;;;;;;0.90;0.40;;;;;;;18.06;70.13;102232.41;4878783;29;20421;-70
2023/09/25 09:01:32;;;;;;;1.10;0.70;;;;;;;18.24;69.71;102227.06;4878031;29;20542;-69
2023/09/25 09:04:01;;;;;;;0.90;0.57;;;;;;;18.44;69.68;102226.94;4876666;29;20426;-70
2023/09/25 09:06:32;;;;;;;0.90;0.60;;;;;;;18.67;68.89;102224.44;4877728;29;20534;-71
2023/09/25 09:09:01;;;;;;;0.90;0.47;;;;;;;18.76;68.22;102225.00;4878813;29;20993;-70
2023/09/25 09:11:29;;;;;;;1.20;0.60;;;;;;;18.84;67.67;102225.53;4874245;29;20539;-70
2023/09/25 09:14:02;;;;;;;1.20;1.00;;;;;;;19.01;65.33;102217.59;4880991;29;20438;-70
2023/09/25 09:16:31;;;;;;;1.10;0.60;;;;;;;18.94;65.66;102219.56;4876381;29;20447;-69
2023/09/25 09:19:07;;;;;;;0.90;0.70;;;;;;;18.99;66.28;102214.22;4874303;29;20847;-70
2023/09/25 09:21:43;;;;;;;0.90;0.50;;;;;;;19.30;64.85;102216.03;4877471;29;20509;-70
2023/09/25 09:24:21;;;;;;;1.00;0.63;;;;;;;19.49;63.90;102210.34;4879104;29;20458;-69
2023/09/25 09:26:51;;;;;;;1.27;0.70;;;;;;;19.59;62.88;102214.44;4876831;29;20447;-69
2023/09/25 09:29:21;;;;;;;0.90;0.40;;;;;;;19.50;62.18;102220.25;4874923;29;20453;-70
2023/09/25 09:31:52;;;;;;;1.10;0.50;;;;;;;19.77;60.69;102206.19;4873295;29;20461;-69
2023/09/25 09:34:24;;;;;;;0.90;0.60;;;;;;;19.81;60.93;102218.38;4874372;29;20898;-70
2023/09/25 09:36:54;;;;;;;1.23;1.13;;;;;;;19.95;60.18;102208.88;4880313;29;20978;-69
2023/09/25 09:39:25;;;;;;;1.33;1.23;;;;;;;19.88;60.15;102211.75;4878161;29;20454;-69
2023/09/25 09:41:55;;;;;;;1.20;1.00;;;;;;;20.02;59.63;102209.63;4880992;29;20472;-72
2023/09/25 09:44:24;;;;;;;1.10;0.60;;;;;;;20.08;58.39;102211.47;4878397;29;20583;-68
2023/09/25 09:46:54;;;;;;;1.40;0.50;;;;;;;20.09;58.80;102196.63;4877477;29;20475;-69
2023/09/25 09:49:25;;;;;;;0.90;0.50;;;;;;;20.19;58.60;102202.41;4881716;29;20421;-68
2023/09/25 09:51:56;;;;;;;1.10;0.70;;;;;;;20.31;58.87;102206.06;4874005;29;20483;-69
2023/09/25 09:54:27;;;;;;;1.00;0.57;;;;;;;20.36;57.54;102197.94;4880941;29;20405;-70
2023/09/25 09:56:59;;;;;;;1.10;0.77;;;;;;;20.51;57.31;102191.16;4875084;29;20440;-68
2023/09/25 09:59:28;;;;;;;1.00;0.50;;;;;;;20.59;57.43;102196.31;4874482;29;20479;-69
2023/09/25 10:01:58;;;;;;;1.10;0.50;;;;;;;20.57;56.78;102190.22;4870430;29;20932;-72
2023/09/25 10:04:27;;;;;;;1.10;1.00;;;;;;;20.61;56.41;102192.25;4872519;29;20471;-69
2023/09/25 10:07:04;;;;;;;1.23;0.93;;;;;;;20.61;56.90;102180.41;4881815;29;20426;-68
2023/09/25 10:09:33;;;;;;;1.00;0.50;;;;;;;20.72;55.23;102172.16;4874999;29;20415;-69
2023/09/25 10:12:04;;;;;;;1.00;0.60;;;;;;;20.80;55.31;102182.81;4874989;29;20706;-71
2023/09/25 10:14:43;;;;;;;1.10;0.80;;;;;;;21.00;54.74;102178.88;4871236;29;20444;-70
2023/09/25 10:17:12;;;;;;;0.90;0.50;;;;;;;20.86;54.14;102172.78;4878493;29;20410;-70
2023/09/25 10:19:52;;;;;;;1.33;1.17;;;;;;;20.78;55.43;102184.13;4876964;29;20835;-69
2023/09/25 10:22:26;;;;;;;1.20;0.93;;;;;;;20.81;54.83;102176.25;4876770;29;20464;-69
2023/09/25 10:25:04;;;;;;;1.30;1.20;;;;;;;20.91;54.76;102180.31;4877808;29;20462;-69
2023/09/25 10:27:34;;;;;;;1.17;0.83;;;;;;;20.90;53.98;102179.47;4878650;29;20458;-68
2023/09/25 10:30:06;;;;;;;1.10;0.70;;;;;;;20.88;53.75;102176.09;4875797;29;20480;-69
2023/09/25 10:32:40;;;;;;;1.00;0.60;;;;;;;20.73;53.97;102165.59;4880187;29;20894;-68
2023/09/25 10:35:50;;;;;;;0.90;0.50;;;;;;;20.98;53.75;102165.34;4878042;29;20843;-70
2023/09/25 10:38:28;;;;;;;2.53;0.60;;;;;;;21.00;53.13;102157.69;4880538;29;20427;-69
2023/09/25 10:41:06;;;;;;;1.40;1.03;;;;;;;20.87;53.51;102162.59;4877873;29;20428;-69
2023/09/25 10:43:36;;;;;;;0.90;0.40;;;;;;;20.95;52.80;102153.97;4879137;29;20458;-69
2023/09/25 10:46:05;;;;;;;1.90;0.63;;;;;;;21.10;52.75;102152.41;4882816;29;20805;-69
2023/09/25 10:48:35;;;;;;;1.13;0.50;;;;;;;20.96;53.28;102150.97;4880828;29;20430;-70
2023/09/25 10:51:03;;;;;;;1.20;0.60;;;;;;;21.13;52.50;102151.06;4879087;29;20477;-70
2023/09/25 10:53:34;;;;;;;1.17;0.50;;;;;;;21.22;52.61;102139.47;4881017;29;20504;-70
2023/09/25 10:56:02;;;;;;;1.10;0.83;;;;;;;21.35;51.69;102145.81;4880156;29;20423;-69
2023/09/25 10:58:31;;;;;;;0.90;0.50;;;;;;;20.99;52.90;102145.00;4880838;29;20412;-69
2023/09/25 11:01:02;;;;;;;1.27;0.60;;;;;;;21.31;52.93;102134.44;4883034;29;20450;-69
2023/09/25 11:03:37;;;;;;;1.60;0.60;;;;;;;21.50;51.88;102140.59;4872905;29;20423;-71
2023/09/25 11:06:07;;;;;;;1.57;0.60;;;;;;;21.44;51.89;102133.34;4879221;29;20416;-68
2023/09/25 11:08:37;;;;;;;2.17;1.73;;;;;;;21.51;52.53;102136.75;4878669;29;20432;-68
2023/09/25 11:11:06;;;;;;;1.00;0.50;;;;;;;21.81;51.99;102126.34;4878189;29;20834;-67
2023/09/25 11:13:35;;;;;;;1.97;1.10;;;;;;;21.97;50.46;102130.25;4882002;29;20420;-69
2023/09/25 11:16:04;;;;;;;0.90;0.50;;;;;;;21.74;50.23;102114.63;4871758;29;20443;-69
2023/09/25 11:18:33;;;;;;;1.00;0.53;;;;;;;21.68;50.73;102126.66;4876282;29;20954;-68
2023/09/25 11:21:02;;;;;;;1.00;0.67;;;;;;;21.55;50.75;102116.75;4883326;29;20434;-68
2023/09/25 11:23:33;;;;;;;2.23;0.57;;;;;;;21.55;51.09;102121.41;4880298;29;20441;-69
2023/09/25 11:26:04;;;;;;;0.90;0.40;;;;;;;21.64;50.93;102119.94;4877510;29;20435;-69
2023/09/25 11:28:34;;;;;;;1.00;0.50;;;;;;;21.51;50.44;102114.72;4875650;29;20828;-69
2023/09/25 11:31:03;;;;;;;1.87;1.20;;;;;;;21.67;51.40;102103.78;4874578;29;20602;-69
2023/09/25 11:33:33;;;;;;;1.00;0.80;;;;;;;21.87;51.41;102103.31;4882384;29;20439;-71
2023/09/25 11:36:01;;;;;;;1.30;0.70;;;;;;;21.96;50.50;102096.34;4879480;29;20446;-68
2023/09/25 11:38:30;;;;;;;1.30;1.03;;;;;;;22.25;50.35;102099.84;4878288;29;20454;-69
2023/09/25 11:41:04;;;;;;;1.00;0.60;;;;;;;22.30;49.65;102099.94;4875596;29;20523;-68
2023/09/25 11:43:35;;;;;;;1.43;0.70;;;;;;;22.22;49.12;102094.03;4877591;29;21005;-69
2023/09/25 11:46:04;;;;;;;1.40;0.80;;;;;;;22.07;49.28;102095.41;4880256;29;20443;-71
2023/09/25 11:48:33;;;;;;;1.20;0.80;;;;;;;21.96;49.83;102088.06;4878622;29;20442;-68
2023/09/25 11:51:02;;;;;;;1.00;0.60;;;;;;;21.99;49.73;102090.31;4879710;29;20459;-69
2023/09/25 11:53:30;;;;;;;2.13;0.70;;;;;;;22.06;50.09;102082.72;4884488;29;21052;-69
2023/09/25 11:55:59;;;;;;;2.03;1.30;;;;;;;21.97;49.45;102081.47;4879518;29;20509;-69
2023/09/25 11:58:29;;;;;;;1.70;0.80;;;;;;;21.76;49.34;102084.91;4878321;29;20443;-69
2023/09/25 12:00:59;;;;;;;1.07;0.80;;;;;;;21.69;49.70;102071.28;4876701;29;20470;-68
2023/09/25 12:03:28;;;;;;;0.90;0.50;;;;;;;21.63;49.85;102076.97;4878228;29;20858;-69
2023/09/25 12:05:57;;;;;;;0.90;0.50;;;;;;;21.74;50.14;102076.03;4875429;29;20527;-69
2023/09/25 12:08:26;;;;;;;1.17;0.63;;;;;;;22.02;49.68;102070.53;4874452;29;20844;-69
2023/09/25 12:10:55;;;;;;;1.10;0.70;;;;;;;22.15;49.84;102071.28;4877354;29;20470;-69
2023/09/25 12:13:24;;;;;;;1.00;0.60;;;;;;;22.24;49.63;102076.13;4879770;29;20514;-70
2023/09/25 12:15:52;;;;;;;1.00;0.60;;;;;;;21.82;49.42;102078.41;4878699;29;20490;-70
2023/09/25 12:18:23;;;;;;;0.97;0.67;;;;;;;21.71;50.38;102071.03;4880307;29;20450;-69
2023/09/25 12:20:53;;;;;;;1.00;0.50;;;;;;;21.84;49.97;102070.72;4881805;29;21061;-69
2023/09/25 12:23:23;;;;;;;1.00;0.50;;;;;;;21.88;49.46;102066.38;4873930;29;20444;-69
2023/09/25 12:25:52;;;;;;;0.90;0.40;;;;;;;22.13;48.82;102067.91;4878840;29;20490;-69
2023/09/25 12:28:21;;;;;;;1.00;0.60;;;;;;;22.27;48.32;102069.28;4877117;29;20436;-70
2023/09/25 12:30:50;;;;;;;2.07;1.03;;;;;;;22.36;47.78;102067.78;4877075;29;21007;-69
2023/09/25 12:33:21;;;;;;;1.00;0.60;;;;;;;22.08;48.52;102063.16;4881496;29;20553;-69
2023/09/25 12:35:52;;;;;;;1.17;0.80;;;;;;;22.01;49.12;102065.25;4878605;29;20526;-69
2023/09/25 12:38:21;;;;;;;1.00;0.50;;;;;;;22.00;49.30;102058.91;4882015;29;20436;-71
2023/09/25 12:40:50;;;;;;;1.20;0.70;;;;;;;22.07;49.49;102059.56;4878483;29;20519;-68
2023/09/25 12:43:21;;;;;;;2.90;0.87;;;;;;;22.00;49.48;102047.88;4878381;29;20434;-69
2023/09/25 12:45:51;;;;;;;0.90;0.40;;;;;;;22.06;49.27;102048.81;4878513;29;20448;-70
2023/09/25 12:48:23;;;;;;;1.03;0.67;;;;;;;22.00;48.88;102047.06;4877032;29;20416;-69
2023/09/25 12:50:53;;;;;;;0.90;0.60;;;;;;;21.95;49.22;102042.28;4879530;29;20538;-69
2023/09/25 12:53:22;;;;;;;0.97;0.53;;;;;;;22.03;49.26;102041.88;4877002;29;20574;-69
2023/09/25 12:55:51;;;;;;;0.93;0.50;;;;;;;22.03;49.34;102047.38;4876176;29;20448;-70
2023/09/25 12:58:20;;;;;;;1.00;0.50;;;;;;;22.30;48.96;102041.19;4871472;29;20439;-69
2023/09/25 13:00:48;;;;;;;1.10;0.67;;;;;;;22.54;48.73;102037.13;4873539;29;20487;-69
2023/09/25 13:03:17;;;;;;;0.90;0.60;;;;;;;22.40;48.46;102039.44;4875870;29;20452;-70
2023/09/25 13:05:46;;;;;;;1.00;0.60;;;;;;;22.44;48.26;102043.34;4883684;29;20834;-68
2023/09/25 13:08:17;;;;;;;1.10;0.70;;;;;;;22.43;48.38;102038.06;4878790;29;20571;-69
2023/09/25 13:10:46;;;;;;;1.10;0.60;;;;;;;22.53;48.76;102032.72;4872743;29;20515;-70
2023/09/25 13:13:15;;;;;;;1.00;0.60;;;;;;;22.48;48.42;102027.94;4878782;29;21188;-69
2023/09/25 13:15:44;;;;;;;1.00;0.57;;;;;;;22.60;48.57;102029.78;4876991;29;20938;-69
2023/09/25 13:18:13;;;;;;;1.00;0.53;;;;;;;22.53;48.11;102021.66;4877956;29;20455;-70
2023/09/25 13:20:42;;;;;;;0.90;0.40;;;;;;;22.41;48.66;102023.72;4876019;29;20472;-69
2023/09/25 13:23:10;;;;;;;0.90;0.50;;;;;;;22.38;48.90;102029.72;4876295;29;20439;-69
2023/09/25 13:25:42;;;;;;;1.53;0.87;;;;;;;22.70;49.15;102030.78;4875284;29;20950;-69
2023/09/25 13:28:10;;;;;;;1.40;0.60;;;;;;;22.62;48.05;102022.91;4874464;29;20447;-70
2023/09/25 13:30:39;;;;;;;1.00;0.70;;;;;;;22.69;48.15;102020.81;4874945;29;20462;-69
2023/09/25 13:33:08;;;;;;;1.10;0.57;;;;;;;22.66;48.44;102024.06;4876579;29;20479;-69
2023/09/25 13:35:37;;;;;;;0.90;0.50;;;;;;;22.41;49.03;102015.44;4879677;29;20798;-69
2023/09/25 13:38:06;;;;;;;1.50;1.00;;;;;;;22.17;49.77;102019.50;4875674;29;20443;-70
2023/09/25 13:40:35;;;;;;;1.10;0.60;;;;;;;22.30;49.52;102016.38;4875811;29;20463;-70
2023/09/25 13:43:05;;;;;;;1.00;0.50;;;;;;;22.53;48.96;102008.72;4874747;29;20823;-70
2023/09/25 13:45:34;;;;;;;1.07;0.60;;;;;;;22.54;48.96;102004.03;4876889;29;20430;-70
2023/09/25 13:48:04;;;;;;;0.97;0.63;;;;;;;22.54;49.25;102004.88;4880567;29;20807;-70
2023/09/25 13:50:34;;;;;;;1.20;0.80;;;;;;;22.29;49.60;102001.75;4874945;29;20465;-68
2023/09/25 13:53:03;;;;;;;1.23;0.60;;;;;;;22.09;49.62;101996.75;4877646;29;20538;-69
2023/09/25 13:55:32;;;;;;;0.90;0.40;;;;;;;22.09;49.57;101998.69;4873623;29;20546;-69
2023/09/25 13:58:00;;;;;;;1.00;0.50;;;;;;;22.08;49.82;101994.25;4875812;29;20489;-68
2023/09/25 14:00:32;;;;;;;2.17;0.70;;;;;;;22.17;49.99;101990.00;4876215;29;20432;-70
2023/09/25 14:03:00;;;;;;;1.00;0.60;;;;;;;22.27;49.63;101992.06;4877487;29;20459;-70
2023/09/25 14:05:29;;;;;;;1.10;0.60;;;;;;;22.27;49.53;101997.59;4876655;29;20439;-69
2023/09/25 14:07:58;;;;;;;0.90;0.40;;;;;;;22.29;49.33;101984.38;4879177;29;20504;-69
2023/09/25 14:10:27;;;;;;;3.50;1.10;;;;;;;22.35;49.35;101984.19;4875625;29;20456;-69
2023/09/25 14:12:55;;;;;;;1.87;0.60;;;;;;;22.41;49.73;101982.34;4878002;29;20474;-69
2023/09/25 14:15:24;;;;;;;2.70;0.87;;;;;;;22.48;49.32;101989.34;4881918;29;20439;-69
2023/09/25 14:17:54;;;;;;;1.63;1.10;;;;;;;22.44;49.24;101981.81;4877120;29;20435;-68
2023/09/25 14:20:23;;;;;;;1.10;0.70;;;;;;;22.51;48.93;101979.72;4881744;29;20851;-69
2023/09/25 14:22:52;;;;;;;1.40;0.80;;;;;;;22.65;49.80;101972.75;4875765;29;20439;-68
2023/09/25 14:25:20;;;;;;;0.90;0.50;;;;;;;22.61;49.44;101971.56;4876802;29;20510;-68
2023/09/25 14:27:50;;;;;;;1.00;0.70;;;;;;;22.54;49.28;101965.41;4881638;29;20940;-69
2023/09/25 14:30:19;;;;;;;1.00;0.50;;;;;;;22.50;49.09;101964.25;4881763;29;20435;-71
2023/09/25 14:32:48;;;;;;;1.10;0.70;;;;;;;22.32;49.63;101954.34;4880181;29;20438;-69
2023/09/25 14:35:18;;;;;;;1.00;0.47;;;;;;;22.34;50.08;101948.59;4879785;29;20498;-70
2023/09/25 14:37:47;;;;;;;1.00;0.50;;;;;;;22.30;49.98;101941.91;4877388;29;20446;-69
2023/09/25 14:40:16;;;;;;;0.90;0.40;;;;;;;22.34;49.75;101932.03;4879804;29;20497;-70
2023/09/25 14:42:48;;;;;;;1.00;0.50;;;;;;;22.39;49.61;101937.63;4881098;29;20438;-70
2023/09/25 14:45:17;;;;;;;1.00;0.53;;;;;;;22.29;50.16;101940.25;4879129;29;20423;-69
2023/09/25 14:47:47;;;;;;;0.90;0.50;;;;;;;22.20;49.93;101936.25;4880952;29;20469;-69
2023/09/25 14:50:19;;;;;;;1.00;0.50;;;;;;;22.22;50.28;101939.63;4876965;29;20527;-68
2023/09/25 14:52:48;;;;;;;1.00;0.60;;;;;;;22.08;50.15;101928.94;4878692;29;20470;-68
2023/09/25 14:55:16;;;;;;;1.10;0.80;;;;;;;22.08;50.53;101934.44;4878060;29;20569;-67
2023/09/25 14:57:45;;;;;;;1.10;0.73;;;;;;;22.28;50.24;101938.56;4878313;29;20806;-68
2023/09/25 15:00:14;;;;;;;0.90;0.50;;;;;;;22.24;50.39;101943.78;4876089;29;20435;-68
2023/09/25 15:02:43;;;;;;;1.10;0.63;;;;;;;22.12;50.21;101933.94;4882907;29;20923;-68
2023/09/25 15:05:12;;;;;;;0.90;0.40;;;;;;;22.12;50.21;101928.44;4875582;29;20490;-67
2023/09/25 15:07:42;;;;;;;0.90;0.50;;;;;;;21.97;50.47;101927.13;4877967;29;20819;-67
2023/09/25 15:10:11;;;;;;;1.00;0.50;;;;;;;21.94;50.77;101927.63;4878755;29;20431;-68
2023/09/25 15:12:40;;;;;;;1.00;0.43;;;;;;;21.98;50.76;101925.19;4879253;29;20450;-68
2023/09/25 15:15:10;;;;;;;0.93;0.50;;;;;;;22.03;50.84;101928.84;4879860;29;21038;-67
2023/09/25 15:17:41;;;;;;;0.90;0.50;;;;;;;21.97;51.46;101929.88;4885212;29;20434;-68
2023/09/25 15:20:10;;;;;;;1.00;0.60;;;;;;;21.90;51.32;101925.59;4878571;29;20458;-69
2023/09/25 15:22:38;;;;;;;0.93;0.57;;;;;;;21.75;52.05;101923.44;4876138;29;20435;-69
2023/09/25 15:25:10;;;;;;;1.93;0.60;;;;;;;21.71;52.21;101926.94;4879559;29;20441;-68
2023/09/25 15:27:38;;;;;;;1.00;0.50;;;;;;;21.59;52.57;101925.09;4880100;29;20442;-68
2023/09/25 15:30:09;;;;;;;1.00;0.50;;;;;;;21.46;52.63;101913.59;4878840;29;20833;-68
2023/09/25 15:32:37;;;;;;;0.90;0.40;;;;;;;21.41;52.82;101905.25;4879570;29;20438;-68
2023/09/25 15:35:08;;;;;;;0.90;0.50;;;;;;;21.36;53.18;101917.00;4880291;29;20844;-68
2023/09/25 15:37:37;;;;;;;0.90;0.40;;;;;;;21.28;53.63;101933.09;4877695;29;20754;-69
2023/09/25 15:40:09;;;;;;;1.30;0.87;;;;;;;21.10;53.55;101928.63;4878618;29;20465;-69
2023/09/25 15:42:37;;;;;;;3.53;1.23;;;;;;;21.03;53.72;101925.19;4878221;29;20435;-69
2023/09/25 15:45:07;;;;;;;1.20;0.77;;;;;;;20.93;54.27;101920.31;4878008;29;20430;-69
2023/09/25 15:47:36;;;;;;;1.00;0.50;;;;;;;20.91;54.53;101911.50;4886111;29;20507;-67
2023/09/25 15:50:06;;;;;;;1.00;0.60;;;;;;;20.88;54.66;101911.13;4877853;29;20438;-69
2023/09/25 15:52:34;;;;;;;1.10;0.50;;;;;;;20.80;54.97;101915.13;4879953;29;20471;-69
2023/09/25 15:55:03;;;;;;;0.90;0.40;;;;;;;20.80;54.80;101915.13;4879911;29;20455;-68
2023/09/25 15:57:33;;;;;;;0.90;0.40;;;;;;;20.63;55.42;101908.72;4882756;29;20427;-68
2023/09/25 16:00:05;;;;;;;0.90;0.40;;;;;;;20.53;56.16;101908.50;4885213;29;20525;-68
2023/09/25 16:02:34;;;;;;;1.30;0.70;;;;;;;20.57;56.16;101910.56;4877628;29;20492;-68
2023/09/25 16:05:04;;;;;;;1.50;0.80;;;;;;;20.44;56.89;101918.22;4878747;29;20443;-68
2023/09/25 16:07:32;;;;;;;0.93;0.50;;;;;;;20.37;56.99;101916.47;4880350;29;20233;-68
2023/09/25 16:10:02;;;;;;;0.90;0.50;;;;;;;20.34;57.09;101922.41;4877556;29;20872;-67
2023/09/25 16:12:31;;;;;;;1.10;0.70;;;;;;;20.22;57.51;101918.00;4879944;29;20455;-68
2023/09/25 16:15:02;;;;;;;0.90;0.50;;;;;;;20.09;58.27;101916.31;4877278;29;20437;-69
2023/09/25 16:17:30;;;;;;;1.00;0.60;;;;;;;19.96;59.01;101908.34;4874374;29;20935;-69
2023/09/25 16:19:59;;;;;;;0.90;0.50;;;;;;;19.92;59.09;101909.91;4876562;29;20475;-68
2023/09/25 16:22:28;;;;;;;1.00;0.70;;;;;;;19.96;59.08;101908.34;4877996;29;20460;-69
2023/09/25 16:24:56;;;;;;;1.00;0.50;;;;;;;19.82;59.73;101906.91;4877164;29;20547;-68
2023/09/25 16:27:25;;;;;;;1.00;0.60;;;;;;;19.80;59.67;101914.56;4877051;29;20595;-68
2023/09/25 16:29:54;;;;;;;1.50;1.10;;;;;;;19.68;59.92;101911.81;4878852;29;20512;-68
2023/09/25 16:32:24;;;;;;;1.20;0.70;;;;;;;19.78;59.91;101908.47;4879053;29;20460;-70
2023/09/25 16:34:53;;;;;;;0.90;0.50;;;;;;;19.69;60.24;101913.50;4878190;29;20469;-67
2023/09/25 16:37:22;;;;;;;1.00;0.60;;;;;;;19.79;60.22;101918.38;4877972;29;20984;-68
2023/09/25 16:39:51;;;;;;;1.70;0.77;;;;;;;19.63;60.69;101913.59;4878085;29;20475;-69
2023/09/25 16:42:20;;;;;;;0.90;0.50;;;;;;;19.60;60.63;101919.56;4877511;29;20430;-66
2023/09/25 16:44:49;;;;;;;1.00;0.60;;;;;;;19.43;61.46;101925.72;4879952;29;20480;-68
2023/09/25 16:47:17;;;;;;;2.70;1.10;;;;;;;19.28;62.35;101939.03;4878815;29;20438;-68
2023/09/25 16:49:51;;;;;;;1.20;0.70;;;;;;;19.04;63.51;101935.38;4878220;29;20471;-67
2023/09/25 16:52:19;;;;;;;0.90;0.50;;;;;;;18.90;63.92;101931.16;4879130;29;20455;-68
2023/09/25 16:54:48;;;;;;;1.10;0.60;;;;;;;18.79;64.36;101933.84;4879768;29;20467;-68
2023/09/25 16:57:17;;;;;;;0.90;0.40;;;;;;;18.73;64.77;101937.53;4878208;29;20988;-68
2023/09/25 16:59:48;;;;;;;0.90;0.50;;;;;;;18.59;65.29;101934.09;4879411;29;20434;-69
2023/09/25 17:02:17;;;;;;;0.90;0.50;;;;;;;18.54;65.88;101943.00;4880125;29;20466;-68
2023/09/25 17:04:45;;;;;;;1.73;0.60;;;;;;;18.51;66.58;101943.44;4879336;29;20418;-68
2023/09/25 17:07:16;;;;;;;1.57;0.50;;;;;;;18.66;65.94;101935.72;4879507;29;20435;-69
2023/09/25 17:09:45;;;;;;;1.30;1.20;;;;;;;18.57;66.59;101934.34;4879997;29;20440;-68
2023/09/25 17:12:14;;;;;;;0.93;0.60;;;;;;;18.46;67.17;101939.72;4875830;29;20814;-69
2023/09/25 17:14:44;;;;;;;0.90;0.53;;;;;;;18.41;67.30;101948.63;4879423;29;20576;-67
2023/09/25 17:17:13;;;;;;;1.00;0.50;;;;;;;18.32;67.89;101949.16;4874456;29;20514;-67
2023/09/25 17:19:42;;;;;;;0.97;0.57;;;;;;;18.25;68.64;101949.22;4876916;29;20439;-65
2023/09/25 17:22:10;;;;;;;1.20;0.80;;;;;;;18.26;68.97;101945.41;4878349;29;20431;-67
2023/09/25 17:24:40;;;;;;;1.10;0.70;;;;;;;18.21;69.23;101953.47;4875705;29;20514;-67
2023/09/25 17:27:13;;;;;;;0.90;0.50;;;;;;;18.11;69.80;101950.44;4877131;29;20467;-68
2023/09/25 17:29:43;;;;;;;0.90;0.50;;;;;;;18.03;70.60;101948.00;4876578;29;20822;-67
2023/09/25 17:32:11;;;;;;;0.90;0.40;;;;;;;18.06;70.82;101950.28;4880413;29;20483;-68
2023/09/25 17:34:41;;;;;;;1.13;0.70;;;;;;;18.05;70.84;101951.34;4880347;29;20467;-69
2023/09/25 17:37:10;;;;;;;0.90;0.50;;;;;;;18.00;71.52;101953.94;4874179;29;20418;-67
2023/09/25 17:39:40;;;;;;;1.63;1.50;;;;;;;17.86;72.56;101952.38;4877071;29;20973;-67
2023/09/25 17:42:09;;;;;;;1.20;0.87;;;;;;;17.83;72.76;101958.28;4881271;29;20444;-69
2023/09/25 17:44:38;;;;;;;0.90;0.50;;;;;;;17.83;72.86;101956.41;4878432;29;20474;-70
2023/09/25 17:47:07;;;;;;;1.30;0.53;;;;;;;17.79;73.23;101960.66;4877872;29;20463;-67
2023/09/25 17:49:36;;;;;;;1.07;0.70;;;;;;;17.75;73.75;101954.78;4876572;29;20455;-67
2023/09/25 17:52:05;;;;;;;0.90;0.50;;;;;;;17.80;73.78;101963.16;4879398;29;20430;-69
2023/09/25 17:54:52;;;;;;;1.50;1.20;;;;;;;17.70;74.31;101957.38;4877520;29;20446;-68
2023/09/25 17:57:21;;;;;;;1.87;0.53;;;;;;;17.61;75.14;101963.34;4873059;29;20435;-67
2023/09/25 17:59:49;;;;;;;2.07;1.20;;;;;;;17.51;75.84;101960.22;4871503;29;20571;-67
2023/09/25 18:02:18;;;;;;;1.50;0.80;;;;;;;17.43;76.46;101964.06;4878627;29;20526;-67
2023/09/25 18:04:47;;;;;;;1.20;0.90;;;;;;;17.43;76.67;101958.59;4878308;29;20409;-70
2023/09/25 18:07:16;;;;;;;1.43;0.87;;;;;;;17.33;77.48;101955.53;4880519;29;20443;-70
2023/09/25 18:09:45;;;;;;;0.90;0.60;;;;;;;17.27;77.85;101956.41;4879392;29;20505;-70
2023/09/25 18:12:16;;;;;;;1.63;0.63;;;;;;;17.24;78.35;101954.09;4883045;29;20799;-70
2023/09/25 18:14:44;;;;;;;0.90;0.50;;;;;;;17.23;78.44;101960.63;4881753;29;20510;-69
2023/09/25 18:17:13;;;;;;;0.90;0.40;;;;;;;17.17;79.13;101962.34;4887071;29;20456;-71
2023/09/25 18:19:42;;;;;;;1.67;1.03;;;;;;;17.14;79.44;101965.50;4882473;29;20455;-69
2023/09/25 18:22:11;;;;;;;1.30;1.10;;;;;;;17.18;79.49;101966.78;4883641;29;21019;-69
2023/09/25 18:24:41;;;;;;;1.20;0.70;;;;;;;17.14;79.97;101967.41;4884697;29;20483;-69
2023/09/25 18:27:10;;;;;;;0.90;0.60;;;;;;;17.09;80.29;101964.50;4885105;29;20815;-69
2023/09/25 18:29:40;;;;;;;0.90;0.50;;;;;;;17.08;80.58;101968.31;4878414;29;20455;-70
2023/09/25 18:32:09;;;;;;;1.00;0.57;;;;;;;17.04;81.02;101967.06;4881618;29;20465;-70